createdAt,value
2019-06-27T00:00:06.564Z,1020.37
2019-06-27T00:01:06.552Z,1020.41
2019-06-27T00:02:06.545Z,1020.39
2019-06-27T00:03:06.539Z,1020.40
2019-06-27T00:04:06.543Z,1020.42
2019-06-27T00:05:06.535Z,1020.44
2019-06-27T00:06:06.534Z,1020.43
2019-06-27T00:07:06.525Z,1020.39
2019-06-27T00:08:06.523Z,1020.40
2019-06-27T00:09:06.517Z,1020.47
2019-06-27T00:10:06.514Z,1020.45
2019-06-27T00:11:06.504Z,1020.46
2019-06-27T00:12:06.505Z,1020.40
2019-06-27T00:13:06.500Z,1020.46
2019-06-27T00:14:06.502Z,1020.48
2019-06-27T00:15:06.489Z,1020.47
2019-06-27T00:16:06.483Z,1020.45
2019-06-27T00:17:06.655Z,1020.42
2019-06-27T00:18:06.478Z,1020.46
2019-06-27T00:19:06.469Z,1020.40
2019-06-27T00:20:06.463Z,1020.42
2019-06-27T00:21:06.464Z,1020.44
2019-06-27T00:22:06.456Z,1020.47
2019-06-27T00:23:06.453Z,1020.48
2019-06-27T00:24:06.452Z,1020.47
2019-06-27T00:25:06.445Z,1020.48
2019-06-27T00:26:06.438Z,1020.52
2019-06-27T00:27:06.435Z,1020.50
2019-06-27T00:28:06.430Z,1020.47
2019-06-27T00:29:06.430Z,1020.46
2019-06-27T00:30:06.414Z,1020.47
2019-06-27T00:31:06.429Z,1020.45
2019-06-27T00:32:06.412Z,1020.47
2019-06-27T00:33:06.411Z,1020.47
2019-06-27T00:34:06.408Z,1020.47
2019-06-27T00:35:06.399Z,1020.44
2019-06-27T00:36:06.401Z,1020.44
2019-06-27T00:37:06.394Z,1020.46
2019-06-27T00:38:06.381Z,1020.39
2019-06-27T00:39:06.381Z,1020.46
2019-06-27T00:40:06.378Z,1020.46
2019-06-27T00:41:06.374Z,1020.48
2019-06-27T00:42:06.383Z,1020.44
2019-06-27T00:43:06.359Z,1020.46
2019-06-27T00:44:06.357Z,1020.45
2019-06-27T00:45:06.353Z,1020.48
2019-06-27T00:46:06.354Z,1020.47
2019-06-27T00:47:06.350Z,1020.45
2019-06-27T00:48:06.339Z,1020.47
2019-06-27T00:49:06.335Z,1020.46
2019-06-27T00:50:06.330Z,1020.44
2019-06-27T00:51:06.329Z,1020.49
2019-06-27T00:52:06.324Z,1020.50
2019-06-27T00:53:06.320Z,1020.48
2019-06-27T00:54:06.326Z,1020.50
2019-06-27T00:55:06.314Z,1020.51
2019-06-27T00:56:06.389Z,1020.51
2019-06-27T00:57:13.919Z,1020.52
2019-06-27T00:58:06.294Z,1020.52
2019-06-27T00:59:06.290Z,1020.51
2019-06-27T01:00:06.288Z,1020.50
2019-06-27T01:01:06.280Z,1020.47
2019-06-27T01:02:06.276Z,1020.49
2019-06-27T01:03:06.277Z,1020.49
2019-06-27T01:04:06.273Z,1020.49
2019-06-27T01:05:06.265Z,1020.50
2019-06-27T01:06:06.255Z,1020.45
2019-06-27T01:07:06.258Z,1020.47
2019-06-27T01:08:06.251Z,1020.52
2019-06-27T01:09:06.248Z,1020.52
2019-06-27T01:10:06.236Z,1020.55
2019-06-27T01:11:06.236Z,1020.49
2019-06-27T01:12:06.230Z,1020.57
2019-06-27T01:13:06.228Z,1020.57
2019-06-27T01:14:06.222Z,1020.61
2019-06-27T01:15:06.214Z,1020.60
2019-06-27T01:16:06.209Z,1020.59
2019-06-27T01:17:06.243Z,1020.64
2019-06-27T01:18:06.212Z,1020.65
2019-06-27T01:19:06.195Z,1020.62
2019-06-27T01:20:06.191Z,1020.62
2019-06-27T01:21:06.187Z,1020.56
2019-06-27T01:22:06.182Z,1020.61
2019-06-27T01:23:06.225Z,1020.57
2019-06-27T01:24:06.176Z,1020.59
2019-06-27T01:25:06.176Z,1020.59
2019-06-27T01:26:06.168Z,1020.55
2019-06-27T01:27:06.165Z,1020.57
2019-06-27T01:28:06.156Z,1020.60
2019-06-27T01:29:06.153Z,1020.60
2019-06-27T01:30:06.146Z,1020.62
2019-06-27T01:31:06.143Z,1020.59
2019-06-27T01:32:06.153Z,1020.60
2019-06-27T01:33:06.135Z,1020.58
2019-06-27T01:34:06.126Z,1020.57
2019-06-27T01:35:06.132Z,1020.57
2019-06-27T01:36:06.120Z,1020.54
2019-06-27T01:37:06.114Z,1020.52
2019-06-27T01:38:06.110Z,1020.53
2019-06-27T01:39:06.120Z,1020.54
2019-06-27T01:40:06.101Z,1020.51
2019-06-27T01:41:06.099Z,1020.54
2019-06-27T01:42:06.093Z,1020.49
2019-06-27T01:43:06.091Z,1020.48
2019-06-27T01:44:06.085Z,1020.48
2019-06-27T01:45:06.078Z,1020.50
2019-06-27T01:46:06.073Z,1020.53
2019-06-27T01:47:06.068Z,1020.53
2019-06-27T01:48:06.063Z,1020.53
2019-06-27T01:49:06.065Z,1020.55
2019-06-27T01:50:06.054Z,1020.51
2019-06-27T01:51:06.047Z,1020.53
2019-06-27T01:52:06.048Z,1020.56
2019-06-27T01:53:06.041Z,1020.56
2019-06-27T01:54:06.040Z,1020.54
2019-06-27T01:55:06.025Z,1020.55
2019-06-27T01:56:06.024Z,1020.52
2019-06-27T01:57:06.025Z,1020.58
2019-06-27T01:58:06.025Z,1020.62
2019-06-27T01:59:06.010Z,1020.62
2019-06-27T02:00:06.009Z,1020.58
2019-06-27T02:01:06.006Z,1020.58
2019-06-27T02:02:05.995Z,1020.63
2019-06-27T02:03:05.994Z,1020.60
2019-06-27T02:04:05.991Z,1020.60
2019-06-27T02:05:05.992Z,1020.58
2019-06-27T02:06:05.974Z,1020.62
2019-06-27T02:07:05.997Z,1020.62
2019-06-27T02:08:05.972Z,1020.61
2019-06-27T02:09:05.969Z,1020.59
2019-06-27T02:10:05.966Z,1020.60
2019-06-27T02:11:05.955Z,1020.56
2019-06-27T02:12:05.949Z,1020.59
2019-06-27T02:13:05.945Z,1020.57
2019-06-27T02:14:05.945Z,1020.57
2019-06-27T02:15:05.942Z,1020.57
2019-06-27T02:16:05.935Z,1020.56
2019-06-27T02:17:05.922Z,1020.55
2019-06-27T02:18:05.925Z,1020.51
2019-06-27T02:19:05.920Z,1020.57
2019-06-27T02:20:05.917Z,1020.55
2019-06-27T02:21:05.914Z,1020.52
2019-06-27T02:22:05.901Z,1020.55
2019-06-27T02:23:05.901Z,1020.57
2019-06-27T02:24:05.904Z,1020.59
2019-06-27T02:25:05.894Z,1020.60
2019-06-27T02:26:05.883Z,1020.62
2019-06-27T02:27:05.878Z,1020.63
2019-06-27T02:28:05.874Z,1020.65
2019-06-27T02:29:05.877Z,1020.63
2019-06-27T02:30:05.885Z,1020.64
2019-06-27T02:31:05.869Z,1020.63
2019-06-27T02:32:05.854Z,1020.67
2019-06-27T02:33:05.852Z,1020.70
2019-06-27T02:34:07.052Z,1020.69
2019-06-27T02:35:05.850Z,1020.67
2019-06-27T02:36:05.844Z,1020.69
2019-06-27T02:37:05.839Z,1020.70
2019-06-27T02:38:05.834Z,1020.71
2019-06-27T02:39:05.831Z,1020.73
2019-06-27T02:40:05.820Z,1020.72
2019-06-27T02:41:05.817Z,1020.69
2019-06-27T02:42:05.806Z,1020.71
2019-06-27T02:43:05.882Z,1020.72
2019-06-27T02:44:05.806Z,1020.77
2019-06-27T02:45:05.794Z,1020.75
2019-06-27T02:46:05.805Z,1020.78
2019-06-27T02:47:05.783Z,1020.80
2019-06-27T02:48:05.788Z,1020.79
2019-06-27T02:49:05.777Z,1020.81
2019-06-27T02:50:05.776Z,1020.78
2019-06-27T02:51:05.768Z,1020.79
2019-06-27T02:52:05.763Z,1020.81
2019-06-27T02:53:05.755Z,1020.82
2019-06-27T02:54:05.755Z,1020.82
2019-06-27T02:55:05.749Z,1020.82
2019-06-27T02:56:05.748Z,1020.82
2019-06-27T02:57:05.743Z,1020.81
2019-06-27T02:58:27.901Z,1020.83
2019-06-27T02:59:05.727Z,1020.85
2019-06-27T03:00:05.729Z,1020.83
2019-06-27T03:01:05.721Z,1020.83
2019-06-27T03:02:05.719Z,1020.81
2019-06-27T03:03:05.718Z,1020.79
2019-06-27T03:04:05.706Z,1020.85
2019-06-27T03:05:05.703Z,1020.87
2019-06-27T03:06:05.697Z,1020.88
2019-06-27T03:07:05.690Z,1020.88
2019-06-27T03:08:05.692Z,1020.87
2019-06-27T03:09:05.683Z,1020.89
2019-06-27T03:10:05.679Z,1020.87
2019-06-27T03:11:05.678Z,1020.90
2019-06-27T03:12:05.679Z,1020.93
2019-06-27T03:13:05.665Z,1020.92
2019-06-27T03:14:05.663Z,1020.91
2019-06-27T03:15:05.651Z,1020.94
2019-06-27T03:16:05.657Z,1020.92
2019-06-27T03:17:05.646Z,1020.92
2019-06-27T03:18:05.645Z,1020.91
2019-06-27T03:19:05.653Z,1020.93
2019-06-27T03:20:05.633Z,1020.93
2019-06-27T03:21:05.629Z,1020.87
2019-06-27T03:22:06.182Z,1020.89
2019-06-27T03:23:05.631Z,1020.90
2019-06-27T03:24:05.618Z,1020.87
2019-06-27T03:25:05.610Z,1020.90
2019-06-27T03:26:05.608Z,1020.92
2019-06-27T03:27:05.613Z,1020.97
2019-06-27T03:28:05.597Z,1020.95
2019-06-27T03:29:05.593Z,1020.94
2019-06-27T03:30:05.592Z,1020.96
2019-06-27T03:31:05.581Z,1020.95
2019-06-27T03:32:05.580Z,1020.94
2019-06-27T03:33:05.586Z,1020.93
2019-06-27T03:34:05.579Z,1020.95
2019-06-27T03:35:05.588Z,1020.97
2019-06-27T03:36:05.564Z,1020.98
2019-06-27T03:37:05.558Z,1020.93
2019-06-27T03:38:05.547Z,1020.94
2019-06-27T03:39:05.555Z,1020.96
2019-06-27T03:40:05.544Z,1020.95
2019-06-27T03:41:05.533Z,1020.99
2019-06-27T03:42:05.531Z,1020.99
2019-06-27T03:43:05.526Z,1021.01
2019-06-27T03:44:05.519Z,1021.00
2019-06-27T03:45:05.521Z,1021.01
2019-06-27T03:46:05.513Z,1021.01
2019-06-27T03:47:05.507Z,1021.01
2019-06-27T03:48:05.502Z,1021.02
2019-06-27T03:49:05.498Z,1021.04
2019-06-27T03:50:05.489Z,1021.06
2019-06-27T03:51:05.484Z,1021.06
2019-06-27T03:52:05.485Z,1021.03
2019-06-27T03:53:05.487Z,1021.06
2019-06-27T03:54:05.486Z,1021.06
2019-06-27T03:55:05.553Z,1021.07
2019-06-27T03:56:05.482Z,1021.09
2019-06-27T03:57:05.467Z,1021.09
2019-06-27T03:58:05.458Z,1021.08
2019-06-27T03:59:12.227Z,1021.09
2019-06-27T04:00:05.496Z,1021.07
2019-06-27T04:01:05.488Z,1021.06
2019-06-27T04:02:05.430Z,1021.05
2019-06-27T04:03:05.443Z,1021.03
2019-06-27T04:04:05.425Z,1021.03
2019-06-27T04:05:05.426Z,1021.03
2019-06-27T04:06:05.424Z,1021.01
2019-06-27T04:07:05.414Z,1021.02
2019-06-27T04:08:05.410Z,1021.01
2019-06-27T04:09:05.400Z,1021.02
2019-06-27T04:10:05.396Z,1021.02
2019-06-27T04:11:05.391Z,1021.02
2019-06-27T04:12:05.402Z,1021.02
2019-06-27T04:13:05.392Z,1021.01
2019-06-27T04:14:05.394Z,1021.00
2019-06-27T04:15:05.376Z,1021.01
2019-06-27T04:16:05.374Z,1020.99
2019-06-27T04:17:05.362Z,1021.00
2019-06-27T04:18:05.360Z,1021.01
2019-06-27T04:19:05.360Z,1021.06
2019-06-27T04:20:05.358Z,1021.05
2019-06-27T04:21:05.350Z,1021.05
2019-06-27T04:22:05.342Z,1021.07
2019-06-27T04:23:05.342Z,1021.14
2019-06-27T04:24:05.339Z,1021.12
2019-06-27T04:25:05.329Z,1021.12
2019-06-27T04:26:05.323Z,1021.08
2019-06-27T04:27:05.318Z,1021.13
2019-06-27T04:28:05.314Z,1021.12
2019-06-27T04:29:05.314Z,1021.16
2019-06-27T04:30:05.311Z,1021.15
2019-06-27T04:31:05.305Z,1021.20
2019-06-27T04:32:05.299Z,1021.23
2019-06-27T04:33:05.298Z,1021.21
2019-06-27T04:34:05.291Z,1021.27
2019-06-27T04:35:05.300Z,1021.25
2019-06-27T04:36:05.279Z,1021.25
2019-06-27T04:37:05.270Z,1021.27
2019-06-27T04:38:05.277Z,1021.28
2019-06-27T04:39:05.272Z,1021.28
2019-06-27T04:40:05.257Z,1021.27
2019-06-27T04:41:05.260Z,1021.28
2019-06-27T04:42:05.259Z,1021.28
2019-06-27T04:43:06.285Z,1021.32
2019-06-27T04:44:05.247Z,1021.30
2019-06-27T04:45:05.244Z,1021.33
2019-06-27T04:46:05.230Z,1021.33
2019-06-27T04:47:05.226Z,1021.30
2019-06-27T04:48:05.244Z,1021.33
2019-06-27T04:49:05.220Z,1021.31
2019-06-27T04:50:05.231Z,1021.31
2019-06-27T04:51:05.247Z,1021.33
2019-06-27T04:52:05.205Z,1021.31
2019-06-27T04:53:05.205Z,1021.30
2019-06-27T04:54:05.200Z,1021.33
2019-06-27T04:55:05.205Z,1021.32
2019-06-27T04:56:05.190Z,1021.32
2019-06-27T04:57:05.183Z,1021.33
2019-06-27T04:58:05.179Z,1021.34
2019-06-27T04:59:05.188Z,1021.31
2019-06-27T05:00:05.176Z,1021.32
2019-06-27T05:01:05.170Z,1021.30
2019-06-27T05:02:05.163Z,1021.31
2019-06-27T05:03:05.153Z,1021.28
2019-06-27T05:04:05.153Z,1021.31
2019-06-27T05:05:05.151Z,1021.32
2019-06-27T05:06:05.146Z,1021.30
2019-06-27T05:07:05.148Z,1021.36
2019-06-27T05:08:05.141Z,1021.32
2019-06-27T05:09:05.136Z,1021.35
2019-06-27T05:10:05.127Z,1021.35
2019-06-27T05:11:05.125Z,1021.35
2019-06-27T05:12:05.118Z,1021.37
2019-06-27T05:13:05.112Z,1021.36
2019-06-27T05:14:05.108Z,1021.34
2019-06-27T05:15:05.104Z,1021.40
2019-06-27T05:16:05.101Z,1021.43
2019-06-27T05:17:05.101Z,1021.44
2019-06-27T05:18:05.094Z,1021.46
2019-06-27T05:19:05.091Z,1021.50
2019-06-27T05:20:05.082Z,1021.44
2019-06-27T05:21:05.080Z,1021.55
2019-06-27T05:22:05.074Z,1021.45
2019-06-27T05:23:05.066Z,1021.47
2019-06-27T05:24:05.062Z,1021.50
2019-06-27T05:25:05.058Z,1021.51
2019-06-27T05:26:05.058Z,1021.51
2019-06-27T05:27:05.054Z,1021.49
2019-06-27T05:28:05.046Z,1021.52
2019-06-27T05:29:05.042Z,1021.55
2019-06-27T05:30:10.075Z,1021.48
2019-06-27T05:31:05.036Z,1021.54
2019-06-27T05:32:05.032Z,1021.49
2019-06-27T05:33:05.026Z,1021.51
2019-06-27T05:34:05.022Z,1021.50
2019-06-27T05:35:05.016Z,1021.56
2019-06-27T05:36:05.012Z,1021.59
2019-06-27T05:37:05.026Z,1021.56
2019-06-27T05:38:05.007Z,1021.51
2019-06-27T05:39:05.002Z,1021.55
2019-06-27T05:40:05.001Z,1021.56
2019-06-27T05:41:04.991Z,1021.54
2019-06-27T05:42:04.989Z,1021.59
2019-06-27T05:43:04.985Z,1021.56
2019-06-27T05:44:04.989Z,1021.62
2019-06-27T05:45:04.974Z,1021.65
2019-06-27T05:46:04.974Z,1021.68
2019-06-27T05:47:04.965Z,1021.65
2019-06-27T05:48:04.967Z,1021.68
2019-06-27T05:49:04.960Z,1021.71
2019-06-27T05:50:04.957Z,1021.66
2019-06-27T05:51:04.954Z,1021.69
2019-06-27T05:52:04.949Z,1021.66
2019-06-27T05:53:04.954Z,1021.68
2019-06-27T05:54:04.940Z,1021.62
2019-06-27T05:55:04.942Z,1021.69
2019-06-27T05:56:04.947Z,1021.68
2019-06-27T05:57:04.927Z,1021.74
2019-06-27T05:58:04.929Z,1021.73
2019-06-27T05:59:04.926Z,1021.72
2019-06-27T06:00:04.944Z,1021.73
2019-06-27T06:01:04.919Z,1021.77
2019-06-27T06:02:04.919Z,1021.71
2019-06-27T06:03:04.912Z,1021.72
2019-06-27T06:04:04.905Z,1021.74
2019-06-27T06:05:04.909Z,1021.75
2019-06-27T06:06:04.914Z,1021.74
2019-06-27T06:07:04.905Z,1021.78
2019-06-27T06:08:04.903Z,1021.74
2019-06-27T06:09:04.902Z,1021.75
2019-06-27T06:10:04.914Z,1021.73
2019-06-27T06:11:04.896Z,1021.73
2019-06-27T06:12:04.897Z,1021.69
2019-06-27T06:13:04.904Z,1021.69
2019-06-27T06:14:04.895Z,1021.66
2019-06-27T06:15:04.895Z,1021.64
2019-06-27T06:16:04.895Z,1021.65
2019-06-27T06:17:04.906Z,1021.65
2019-06-27T06:18:04.888Z,1021.66
2019-06-27T06:19:04.889Z,1021.70
2019-06-27T06:20:04.903Z,1021.73
2019-06-27T06:21:04.891Z,1021.73
2019-06-27T06:22:04.892Z,1021.75
2019-06-27T06:23:04.890Z,1021.71
2019-06-27T06:24:04.887Z,1021.77
2019-06-27T06:25:04.900Z,1021.76
2019-06-27T06:26:05.060Z,1021.74
2019-06-27T06:27:04.891Z,1021.71
2019-06-27T06:28:04.886Z,1021.78
2019-06-27T06:29:04.888Z,1021.75
2019-06-27T06:30:04.928Z,1021.75
2019-06-27T06:31:04.887Z,1021.76
2019-06-27T06:32:04.897Z,1021.80
2019-06-27T06:33:04.893Z,1021.81
2019-06-27T06:34:04.895Z,1021.78
2019-06-27T06:35:04.890Z,1021.77
2019-06-27T06:36:04.893Z,1021.80
2019-06-27T06:37:08.051Z,1021.80
2019-06-27T06:38:04.889Z,1021.87
2019-06-27T06:39:04.888Z,1021.88
2019-06-27T06:40:04.946Z,1021.88
2019-06-27T06:41:04.894Z,1021.88
2019-06-27T06:42:04.892Z,1021.90
2019-06-27T06:43:04.968Z,1021.92
2019-06-27T06:44:04.907Z,1021.92
2019-06-27T06:45:04.901Z,1021.95
2019-06-27T06:46:04.897Z,1021.94
2019-06-27T06:47:04.906Z,1021.89
2019-06-27T06:48:04.924Z,1021.93
2019-06-27T06:49:04.917Z,1021.93
2019-06-27T06:50:04.903Z,1021.98
2019-06-27T06:51:04.903Z,1021.94
2019-06-27T06:52:04.905Z,1021.94
2019-06-27T06:53:04.910Z,1021.90
2019-06-27T06:54:04.905Z,1021.91
2019-06-27T06:55:04.915Z,1021.95
2019-06-27T06:56:04.914Z,1021.96
2019-06-27T06:57:04.913Z,1021.95
2019-06-27T06:58:04.918Z,1021.95
2019-06-27T06:59:04.925Z,1021.95
2019-06-27T07:00:04.913Z,1021.98
2019-06-27T07:01:04.927Z,1022.03
2019-06-27T07:02:04.929Z,1022.04
2019-06-27T07:03:04.928Z,1022.02
2019-06-27T07:04:04.933Z,1022.02
2019-06-27T07:05:04.925Z,1022.05
2019-06-27T07:06:04.934Z,1022.03
2019-06-27T07:07:04.936Z,1022.06
2019-06-27T07:08:04.943Z,1022.10
2019-06-27T07:09:04.948Z,1022.08
2019-06-27T07:10:04.948Z,1022.08
2019-06-27T07:11:04.956Z,1022.09
2019-06-27T07:12:04.955Z,1022.09
2019-06-27T07:13:04.960Z,1022.09
2019-06-27T07:14:04.956Z,1022.11
2019-06-27T07:15:04.959Z,1022.06
2019-06-27T07:16:05.011Z,1022.06
2019-06-27T07:17:04.976Z,1022.07
2019-06-27T07:18:04.978Z,1022.06
2019-06-27T07:19:04.978Z,1022.07
2019-06-27T07:20:04.985Z,1022.09
2019-06-27T07:21:04.984Z,1022.10
2019-06-27T07:22:04.993Z,1022.13
2019-06-27T07:23:04.994Z,1022.02
2019-06-27T07:24:04.997Z,1022.08
2019-06-27T07:25:05.000Z,1022.05
2019-06-27T07:26:05.008Z,1022.05
2019-06-27T07:27:05.009Z,1022.01
2019-06-27T07:28:05.016Z,1022.05
2019-06-27T07:29:05.021Z,1022.05
2019-06-27T07:30:05.021Z,1022.02
2019-06-27T07:31:17.151Z,1022.03
2019-06-27T07:32:05.037Z,1022.05
2019-06-27T07:33:05.031Z,1022.02
2019-06-27T07:34:05.041Z,1022.03
2019-06-27T07:35:05.045Z,1022.04
2019-06-27T07:36:05.046Z,1022.06
2019-06-27T07:37:05.050Z,1022.07
2019-06-27T07:38:05.057Z,1022.07
2019-06-27T07:39:05.063Z,1022.06
2019-06-27T07:40:05.063Z,1022.08
2019-06-27T07:41:05.080Z,1022.06
2019-06-27T07:42:05.069Z,1022.10
2019-06-27T07:43:05.077Z,1022.09
2019-06-27T07:44:05.082Z,1022.09
2019-06-27T07:45:05.086Z,1022.11
2019-06-27T07:46:05.131Z,1022.09
2019-06-27T07:47:05.102Z,1022.02
2019-06-27T07:48:05.106Z,1022.05
2019-06-27T07:49:05.108Z,1022.02
2019-06-27T07:50:05.108Z,1022.09
2019-06-27T07:51:05.147Z,1022.07
2019-06-27T07:52:05.133Z,1022.04
2019-06-27T07:53:05.128Z,1022.03
2019-06-27T07:54:05.132Z,1022.10
2019-06-27T07:55:05.143Z,1022.09
2019-06-27T07:56:05.142Z,1022.08
2019-06-27T07:57:05.150Z,1022.08
2019-06-27T07:58:05.150Z,1022.07
2019-06-27T07:59:05.160Z,1022.08
2019-06-27T08:00:05.216Z,1022.06
2019-06-27T08:01:05.175Z,1022.01
2019-06-27T08:02:05.171Z,1022.02
2019-06-27T08:03:05.195Z,1022.02
2019-06-27T08:04:05.201Z,1022.07
2019-06-27T08:05:05.196Z,1022.10
2019-06-27T08:06:05.199Z,1022.09
2019-06-27T08:07:05.200Z,1022.09
2019-06-27T08:08:05.210Z,1022.07
2019-06-27T08:09:05.215Z,1022.06
2019-06-27T08:10:05.217Z,1022.07
2019-06-27T08:11:05.227Z,1022.02
2019-06-27T08:12:05.227Z,1022.02
2019-06-27T08:13:05.234Z,1021.99
2019-06-27T08:14:05.243Z,1022.03
2019-06-27T08:15:05.245Z,1021.98
2019-06-27T08:16:05.259Z,1021.96
2019-06-27T08:17:05.254Z,1021.98
2019-06-27T08:18:05.257Z,1022.00
2019-06-27T08:19:05.263Z,1022.00
2019-06-27T08:20:05.276Z,1022.02
2019-06-27T08:21:05.286Z,1021.99
2019-06-27T08:22:05.280Z,1021.99
2019-06-27T08:23:05.293Z,1022.02
2019-06-27T08:24:05.300Z,1021.98
2019-06-27T08:25:05.298Z,1022.00
2019-06-27T08:26:05.303Z,1022.01
2019-06-27T08:27:05.313Z,1022.03
2019-06-27T08:28:05.325Z,1022.03
2019-06-27T08:29:05.325Z,1021.99
2019-06-27T08:30:08.269Z,1021.98
2019-06-27T08:31:05.331Z,1021.99
2019-06-27T08:32:05.338Z,1021.95
2019-06-27T08:33:05.346Z,1021.96
2019-06-27T08:34:05.354Z,1021.98
2019-06-27T08:35:05.356Z,1021.96
2019-06-27T08:36:05.448Z,1021.92
2019-06-27T08:37:05.376Z,1021.96
2019-06-27T08:38:05.374Z,1021.88
2019-06-27T08:39:05.373Z,1021.93
2019-06-27T08:40:05.381Z,1021.95
2019-06-27T08:41:05.468Z,1021.96
2019-06-27T08:42:05.392Z,1021.95
2019-06-27T08:43:05.394Z,1021.93
2019-06-27T08:44:05.401Z,1021.95
2019-06-27T08:45:05.459Z,1021.95
2019-06-27T08:46:05.410Z,1021.96
2019-06-27T08:47:05.559Z,1021.89
2019-06-27T08:48:05.473Z,1021.87
2019-06-27T08:49:05.969Z,1021.93
2019-06-27T08:50:05.578Z,1021.90
2019-06-27T08:51:05.427Z,1021.87
2019-06-27T08:52:05.426Z,1021.91
2019-06-27T08:53:05.427Z,1021.91
2019-06-27T08:54:05.426Z,1021.90
2019-06-27T08:55:05.431Z,1021.90
2019-06-27T08:56:05.434Z,1021.89
2019-06-27T08:57:05.438Z,1021.85
2019-06-27T08:58:05.437Z,1021.85
2019-06-27T08:59:05.436Z,1021.87
2019-06-27T09:00:05.438Z,1021.91
2019-06-27T09:01:05.491Z,1021.87
2019-06-27T09:02:09.214Z,1021.84
2019-06-27T09:03:05.462Z,1021.89
2019-06-27T09:04:05.455Z,1021.89
2019-06-27T09:05:05.457Z,1021.87
2019-06-27T09:06:05.455Z,1021.88
2019-06-27T09:07:05.467Z,1021.86
2019-06-27T09:08:05.465Z,1021.82
2019-06-27T09:09:05.473Z,1021.77
2019-06-27T09:10:05.475Z,1021.82
2019-06-27T09:11:05.474Z,1021.82
2019-06-27T09:12:05.481Z,1021.72
2019-06-27T09:13:05.490Z,1021.76
2019-06-27T09:14:05.494Z,1021.76
2019-06-27T09:15:05.493Z,1021.81
2019-06-27T09:16:05.500Z,1021.76
2019-06-27T09:17:05.500Z,1021.83
2019-06-27T09:18:05.508Z,1021.77
2019-06-27T09:19:05.512Z,1021.82
2019-06-27T09:20:05.515Z,1021.80
2019-06-27T09:21:05.519Z,1021.84
2019-06-27T09:22:05.519Z,1021.87
2019-06-27T09:23:05.530Z,1021.86
2019-06-27T09:24:05.535Z,1021.80
2019-06-27T09:25:05.537Z,1021.80
2019-06-27T09:26:05.542Z,1021.82
2019-06-27T09:27:05.549Z,1021.83
2019-06-27T09:28:05.551Z,1021.81
2019-06-27T09:29:05.577Z,1021.82
2019-06-27T09:30:05.572Z,1021.81
2019-06-27T09:31:05.575Z,1021.80
2019-06-27T09:32:05.603Z,1021.78
2019-06-27T09:33:05.647Z,1021.81
2019-06-27T09:34:05.587Z,1021.78
2019-06-27T09:35:05.594Z,1021.78
2019-06-27T09:36:05.597Z,1021.70
2019-06-27T09:37:05.605Z,1021.70
2019-06-27T09:38:05.616Z,1021.69
2019-06-27T09:39:05.620Z,1021.71
2019-06-27T09:40:05.625Z,1021.69
2019-06-27T09:41:05.632Z,1021.70
2019-06-27T09:42:05.641Z,1021.68
2019-06-27T09:43:05.658Z,1021.73
2019-06-27T09:44:05.655Z,1021.70
2019-06-27T09:45:05.707Z,1021.69
2019-06-27T09:46:05.683Z,1021.71
2019-06-27T09:47:05.677Z,1021.73
2019-06-27T09:48:05.689Z,1021.67
2019-06-27T09:49:05.692Z,1021.66
2019-06-27T09:50:05.701Z,1021.70
2019-06-27T09:51:05.716Z,1021.71
2019-06-27T09:52:05.722Z,1021.67
2019-06-27T09:53:05.731Z,1021.67
2019-06-27T09:54:05.731Z,1021.70
2019-06-27T09:55:05.732Z,1021.68
2019-06-27T09:56:05.749Z,1021.66
2019-06-27T09:57:05.747Z,1021.71
2019-06-27T09:58:05.766Z,1021.68
2019-06-27T09:59:05.767Z,1021.68
2019-06-27T10:00:05.777Z,1021.69
2019-06-27T10:01:06.330Z,1021.68
2019-06-27T10:02:05.792Z,1021.68
2019-06-27T10:03:05.794Z,1021.69
2019-06-27T10:04:05.803Z,1021.68
2019-06-27T10:05:05.815Z,1021.67
2019-06-27T10:06:05.829Z,1021.65
2019-06-27T10:07:05.831Z,1021.65
2019-06-27T10:08:05.838Z,1021.67
2019-06-27T10:09:05.913Z,1021.64
2019-06-27T10:10:05.878Z,1021.61
2019-06-27T10:11:05.867Z,1021.64
2019-06-27T10:12:05.882Z,1021.56
2019-06-27T10:13:05.887Z,1021.58
2019-06-27T10:14:05.894Z,1021.59
2019-06-27T10:15:05.899Z,1021.62
2019-06-27T10:16:05.915Z,1021.59
2019-06-27T10:17:05.920Z,1021.58
2019-06-27T10:18:05.933Z,1021.56
2019-06-27T10:19:05.939Z,1021.59
2019-06-27T10:20:05.949Z,1021.59
2019-06-27T10:21:05.958Z,1021.57
2019-06-27T10:22:05.964Z,1021.53
2019-06-27T10:23:05.968Z,1021.56
2019-06-27T10:24:05.991Z,1021.53
2019-06-27T10:25:05.990Z,1021.52
2019-06-27T10:26:05.998Z,1021.58
2019-06-27T10:27:06.011Z,1021.56
2019-06-27T10:28:06.013Z,1021.59
2019-06-27T10:29:06.024Z,1021.59
2019-06-27T10:30:06.030Z,1021.57
2019-06-27T10:31:06.046Z,1021.57
2019-06-27T10:32:06.061Z,1021.57
2019-06-27T10:33:06.065Z,1021.56
2019-06-27T10:34:06.084Z,1021.58
2019-06-27T10:35:06.088Z,1021.60
2019-06-27T10:36:06.103Z,1021.63
2019-06-27T10:37:06.113Z,1021.58
2019-06-27T10:38:06.112Z,1021.67
2019-06-27T10:39:06.123Z,1021.64
2019-06-27T10:40:06.137Z,1021.61
2019-06-27T10:41:06.145Z,1021.57
2019-06-27T10:42:06.151Z,1021.55
2019-06-27T10:43:06.166Z,1021.56
2019-06-27T10:44:06.173Z,1021.58
2019-06-27T10:45:06.183Z,1021.56
2019-06-27T10:46:06.189Z,1021.52
2019-06-27T10:47:06.203Z,1021.49
2019-06-27T10:48:06.210Z,1021.47
2019-06-27T10:49:06.259Z,1021.44
2019-06-27T10:50:06.247Z,1021.47
2019-06-27T10:51:06.248Z,1021.41
2019-06-27T10:52:06.260Z,1021.48
2019-06-27T10:53:06.263Z,1021.42
2019-06-27T10:54:06.281Z,1021.45
2019-06-27T10:55:06.281Z,1021.42
2019-06-27T10:56:06.291Z,1021.43
2019-06-27T10:57:06.301Z,1021.38
2019-06-27T10:58:06.310Z,1021.44
2019-06-27T10:59:06.317Z,1021.42
2019-06-27T11:00:06.416Z,1021.40
2019-06-27T11:01:06.397Z,1021.45
2019-06-27T11:02:06.347Z,1021.49
2019-06-27T11:03:15.443Z,1021.49
2019-06-27T11:04:06.367Z,1021.51
2019-06-27T11:05:06.375Z,1021.46
2019-06-27T11:06:06.383Z,1021.42
2019-06-27T11:07:06.398Z,1021.38
2019-06-27T11:08:06.408Z,1021.36
2019-06-27T11:09:06.489Z,1021.36
2019-06-27T11:10:06.425Z,1021.38
2019-06-27T11:11:06.436Z,1021.37
2019-06-27T11:12:06.445Z,1021.36
2019-06-27T11:13:06.467Z,1021.35
2019-06-27T11:14:06.464Z,1021.34
2019-06-27T11:15:06.475Z,1021.31
2019-06-27T11:16:06.488Z,1021.32
2019-06-27T11:17:06.503Z,1021.31
2019-06-27T11:18:06.513Z,1021.28
2019-06-27T11:19:06.539Z,1021.27
2019-06-27T11:20:06.519Z,1021.27
2019-06-27T11:21:06.537Z,1021.28
2019-06-27T11:22:06.545Z,1021.26
2019-06-27T11:23:06.554Z,1021.28
2019-06-27T11:24:06.565Z,1021.26
2019-06-27T11:25:06.581Z,1021.28
2019-06-27T11:26:09.404Z,1021.24
2019-06-27T11:27:06.609Z,1021.29
2019-06-27T11:28:09.265Z,1021.24
2019-06-27T11:29:06.608Z,1021.23
2019-06-27T11:30:07.034Z,1021.25
2019-06-27T11:31:06.646Z,1021.27
2019-06-27T11:32:06.644Z,1021.24
2019-06-27T11:33:06.660Z,1021.28
2019-06-27T11:34:06.662Z,1021.30
2019-06-27T11:35:06.677Z,1021.28
2019-06-27T11:36:06.683Z,1021.28
2019-06-27T11:37:06.692Z,1021.28
2019-06-27T11:38:06.713Z,1021.26
2019-06-27T11:39:06.730Z,1021.23
2019-06-27T11:40:06.728Z,1021.22
2019-06-27T11:41:06.737Z,1021.19
2019-06-27T11:42:06.747Z,1021.14
2019-06-27T11:43:06.803Z,1021.10
2019-06-27T11:44:06.764Z,1021.08
2019-06-27T11:45:06.776Z,1021.16
2019-06-27T11:46:08.892Z,1021.15
2019-06-27T11:47:06.806Z,1021.19
2019-06-27T11:48:06.813Z,1021.13
2019-06-27T11:49:06.820Z,1021.15
2019-06-27T11:50:06.828Z,1021.19
2019-06-27T11:51:06.838Z,1021.19
2019-06-27T11:52:06.843Z,1021.16
2019-06-27T11:53:06.855Z,1021.16
2019-06-27T11:54:06.883Z,1021.14
2019-06-27T11:55:06.885Z,1021.12
2019-06-27T11:56:06.891Z,1021.15
2019-06-27T11:57:06.901Z,1021.16
2019-06-27T11:58:06.911Z,1021.14
2019-06-27T11:59:06.916Z,1021.13
2019-06-27T12:00:06.941Z,1021.12
2019-06-27T12:01:06.943Z,1021.13
2019-06-27T12:02:06.955Z,1021.15
2019-06-27T12:03:06.952Z,1021.14
2019-06-27T12:04:06.975Z,1021.12
2019-06-27T12:05:06.974Z,1021.14